sensor_id;sensor_type;location;lat;lon;timestamp;temperature;humidity
19342;DHT22;9807;48.258;12.690;2022-08-19T00:01:29;22.20;99.90
19342;DHT22;9807;48.258;12.690;2022-08-19T00:03:56;22.20;99.90
19342;DHT22;9807;48.258;12.690;2022-08-19T00:06:22;22.20;99.90
19342;DHT22;9807;48.258;12.690;2022-08-19T00:08:47;22.10;99.90
19342;DHT22;9807;48.258;12.690;2022-08-19T00:11:13;21.70;99.90
19342;DHT22;9807;48.258;12.690;2022-08-19T00:13:39;21.30;99.90
19342;DHT22;9807;48.258;12.690;2022-08-19T00:16:06;21.00;99.90
19342;DHT22;9807;48.258;12.690;2022-08-19T00:18:33;20.90;99.90
19342;DHT22;9807;48.258;12.690;2022-08-19T00:20:59;20.70;99.90
19342;DHT22;9807;48.258;12.690;2022-08-19T00:23:25;20.70;99.90
19342;DHT22;9807;48.258;12.690;2022-08-19T00:25:51;20.80;99.90
19342;DHT22;9807;48.258;12.690;2022-08-19T00:28:18;20.90;99.90
19342;DHT22;9807;48.258;12.690;2022-08-19T00:30:44;21.00;99.90
19342;DHT22;9807;48.258;12.690;2022-08-19T00:33:10;21.20;99.90
19342;DHT22;9807;48.258;12.690;2022-08-19T00:35:36;21.50;99.90
19342;DHT22;9807;48.258;12.690;2022-08-19T00:38:04;21.70;99.90
19342;DHT22;9807;48.258;12.690;2022-08-19T00:40:32;22.00;99.90
19342;DHT22;9807;48.258;12.690;2022-08-19T00:42:57;22.00;99.90
19342;DHT22;9807;48.258;12.690;2022-08-19T00:45:27;21.70;99.90
19342;DHT22;9807;48.258;12.690;2022-08-19T00:47:56;21.50;99.90
19342;DHT22;9807;48.258;12.690;2022-08-19T00:50:22;21.10;99.90
19342;DHT22;9807;48.258;12.690;2022-08-19T00:52:50;20.90;99.90
19342;DHT22;9807;48.258;12.690;2022-08-19T00:55:20;20.70;99.90
19342;DHT22;9807;48.258;12.690;2022-08-19T00:57:53;20.60;99.90
19342;DHT22;9807;48.258;12.690;2022-08-19T01:00:22;20.60;99.90
19342;DHT22;9807;48.258;12.690;2022-08-19T01:02:48;20.70;99.90
19342;DHT22;9807;48.258;12.690;2022-08-19T01:05:21;20.90;99.90
19342;DHT22;9807;48.258;12.690;2022-08-19T01:07:48;20.90;99.90
19342;DHT22;9807;48.258;12.690;2022-08-19T01:10:18;21.00;99.90
19342;DHT22;9807;48.258;12.690;2022-08-19T01:12:46;21.00;99.90
19342;DHT22;9807;48.258;12.690;2022-08-19T01:15:16;21.10;99.90
19342;DHT22;9807;48.258;12.690;2022-08-19T01:17:43;21.10;99.90
19342;DHT22;9807;48.258;12.690;2022-08-19T01:20:13;21.30;99.90
19342;DHT22;9807;48.258;12.690;2022-08-19T01:22:48;21.30;99.90
19342;DHT22;9807;48.258;12.690;2022-08-19T01:25:17;21.50;99.90
19342;DHT22;9807;48.258;12.690;2022-08-19T01:27:48;21.70;99.90
19342;DHT22;9807;48.258;12.690;2022-08-19T01:30:20;21.80;99.90
19342;DHT22;9807;48.258;12.690;2022-08-19T01:32:47;21.70;99.90
19342;DHT22;9807;48.258;12.690;2022-08-19T01:35:13;21.70;99.90
19342;DHT22;9807;48.258;12.690;2022-08-19T01:37:52;21.60;99.90
19342;DHT22;9807;48.258;12.690;2022-08-19T01:40:20;21.30;99.90
19342;DHT22;9807;48.258;12.690;2022-08-19T01:42:51;21.20;99.90
19342;DHT22;9807;48.258;12.690;2022-08-19T01:45:18;20.90;99.90
19342;DHT22;9807;48.258;12.690;2022-08-19T01:47:45;20.90;99.90
19342;DHT22;9807;48.258;12.690;2022-08-19T01:50:12;21.10;99.90
19342;DHT22;9807;48.258;12.690;2022-08-19T01:52:40;21.30;99.90
19342;DHT22;9807;48.258;12.690;2022-08-19T01:55:09;21.20;99.90
19342;DHT22;9807;48.258;12.690;2022-08-19T01:57:37;21.10;99.90
19342;DHT22;9807;48.258;12.690;2022-08-19T02:00:09;20.90;99.90
19342;DHT22;9807;48.258;12.690;2022-08-19T02:02:36;20.90;99.90
19342;DHT22;9807;48.258;12.690;2022-08-19T02:05:02;20.80;99.90
19342;DHT22;9807;48.258;12.690;2022-08-19T02:07:28;20.80;99.90
19342;DHT22;9807;48.258;12.690;2022-08-19T02:09:54;20.70;99.90
19342;DHT22;9807;48.258;12.690;2022-08-19T02:12:21;20.60;99.90
19342;DHT22;9807;48.258;12.690;2022-08-19T02:14:47;20.50;99.90
19342;DHT22;9807;48.258;12.690;2022-08-19T02:17:13;20.50;99.90
19342;DHT22;9807;48.258;12.690;2022-08-19T02:19:39;20.50;99.90
19342;DHT22;9807;48.258;12.690;2022-08-19T02:22:05;20.70;99.90
19342;DHT22;9807;48.258;12.690;2022-08-19T02:24:31;20.90;99.90
19342;DHT22;9807;48.258;12.690;2022-08-19T02:26:57;21.10;99.90
19342;DHT22;9807;48.258;12.690;2022-08-19T02:29:24;21.30;99.90
19342;DHT22;9807;48.258;12.690;2022-08-19T02:31:50;21.40;99.90
19342;DHT22;9807;48.258;12.690;2022-08-19T02:34:16;21.40;99.90
19342;DHT22;9807;48.258;12.690;2022-08-19T02:36:43;21.50;99.90
19342;DHT22;9807;48.258;12.690;2022-08-19T02:39:10;21.60;99.90
19342;DHT22;9807;48.258;12.690;2022-08-19T02:41:36;21.50;99.90
19342;DHT22;9807;48.258;12.690;2022-08-19T02:44:03;21.40;99.90
19342;DHT22;9807;48.258;12.690;2022-08-19T02:46:32;21.30;99.90
19342;DHT22;9807;48.258;12.690;2022-08-19T02:49:01;21.30;99.90
19342;DHT22;9807;48.258;12.690;2022-08-19T02:51:46;21.20;99.90
19342;DHT22;9807;48.258;12.690;2022-08-19T02:54:14;21.20;99.90
19342;DHT22;9807;48.258;12.690;2022-08-19T02:56:40;21.20;99.90
19342;DHT22;9807;48.258;12.690;2022-08-19T02:59:07;21.30;99.90
19342;DHT22;9807;48.258;12.690;2022-08-19T03:01:37;21.20;99.90
19342;DHT22;9807;48.258;12.690;2022-08-19T03:04:07;21.10;99.90
19342;DHT22;9807;48.258;12.690;2022-08-19T03:06:37;21.10;99.90
19342;DHT22;9807;48.258;12.690;2022-08-19T03:09:03;21.00;99.90
19342;DHT22;9807;48.258;12.690;2022-08-19T03:11:30;21.10;99.90
19342;DHT22;9807;48.258;12.690;2022-08-19T03:13:57;21.00;99.90
19342;DHT22;9807;48.258;12.690;2022-08-19T03:16:26;20.80;99.90
19342;DHT22;9807;48.258;12.690;2022-08-19T03:18:53;20.70;99.90
19342;DHT22;9807;48.258;12.690;2022-08-19T03:21:22;20.60;99.90
19342;DHT22;9807;48.258;12.690;2022-08-19T03:23:49;20.70;99.90
19342;DHT22;9807;48.258;12.690;2022-08-19T03:26:16;20.80;99.90
19342;DHT22;9807;48.258;12.690;2022-08-19T03:28:43;20.90;99.90
19342;DHT22;9807;48.258;12.690;2022-08-19T03:31:12;21.10;99.90
19342;DHT22;9807;48.258;12.690;2022-08-19T03:33:40;21.40;99.90
19342;DHT22;9807;48.258;12.690;2022-08-19T03:36:15;21.60;99.90
19342;DHT22;9807;48.258;12.690;2022-08-19T03:38:44;21.80;99.90
19342;DHT22;9807;48.258;12.690;2022-08-19T03:41:17;21.80;99.90
19342;DHT22;9807;48.258;12.690;2022-08-19T03:43:44;21.90;99.90
19342;DHT22;9807;48.258;12.690;2022-08-19T03:46:13;22.00;99.90
19342;DHT22;9807;48.258;12.690;2022-08-19T03:48:41;22.10;99.90
19342;DHT22;9807;48.258;12.690;2022-08-19T03:51:19;22.20;99.90
19342;DHT22;9807;48.258;12.690;2022-08-19T03:53:46;22.20;99.90
19342;DHT22;9807;48.258;12.690;2022-08-19T03:56:12;22.20;99.90
19342;DHT22;9807;48.258;12.690;2022-08-19T03:58:40;22.10;99.90
19342;DHT22;9807;48.258;12.690;2022-08-19T04:01:11;21.90;99.90
19342;DHT22;9807;48.258;12.690;2022-08-19T04:03:38;22.00;99.90
19342;DHT22;9807;48.258;12.690;2022-08-19T04:06:16;22.10;99.90
19342;DHT22;9807;48.258;12.690;2022-08-19T04:08:44;22.20;99.90
19342;DHT22;9807;48.258;12.690;2022-08-19T04:11:12;22.30;99.90
19342;DHT22;9807;48.258;12.690;2022-08-19T04:13:38;22.30;99.90
19342;DHT22;9807;48.258;12.690;2022-08-19T04:16:05;22.30;99.90
19342;DHT22;9807;48.258;12.690;2022-08-19T04:18:33;22.20;99.90
19342;DHT22;9807;48.258;12.690;2022-08-19T04:20:59;22.40;99.90
19342;DHT22;9807;48.258;12.690;2022-08-19T04:23:25;22.50;99.90
19342;DHT22;9807;48.258;12.690;2022-08-19T04:25:54;22.70;99.90
19342;DHT22;9807;48.258;12.690;2022-08-19T04:28:20;22.70;99.90
19342;DHT22;9807;48.258;12.690;2022-08-19T04:30:48;22.70;99.90
19342;DHT22;9807;48.258;12.690;2022-08-19T04:33:16;22.80;99.90
19342;DHT22;9807;48.258;12.690;2022-08-19T04:35:45;22.80;99.90
19342;DHT22;9807;48.258;12.690;2022-08-19T04:38:13;22.90;99.90
19342;DHT22;9807;48.258;12.690;2022-08-19T04:40:47;23.00;99.90
19342;DHT22;9807;48.258;12.690;2022-08-19T04:43:33;23.00;99.90
19342;DHT22;9807;48.258;12.690;2022-08-19T04:46:08;23.00;99.90
19342;DHT22;9807;48.258;12.690;2022-08-19T04:48:36;23.10;99.90
19342;DHT22;9807;48.258;12.690;2022-08-19T04:51:08;23.10;99.90
19342;DHT22;9807;48.258;12.690;2022-08-19T04:53:35;23.10;99.90
19342;DHT22;9807;48.258;12.690;2022-08-19T04:56:08;23.10;99.90
19342;DHT22;9807;48.258;12.690;2022-08-19T04:58:34;23.00;99.90
19342;DHT22;9807;48.258;12.690;2022-08-19T05:00:59;23.00;99.90
19342;DHT22;9807;48.258;12.690;2022-08-19T05:03:25;23.00;99.90
19342;DHT22;9807;48.258;12.690;2022-08-19T05:05:52;23.10;99.90
19342;DHT22;9807;48.258;12.690;2022-08-19T05:08:20;23.00;99.90
19342;DHT22;9807;48.258;12.690;2022-08-19T05:10:48;23.00;99.90
19342;DHT22;9807;48.258;12.690;2022-08-19T05:13:16;23.00;99.90
19342;DHT22;9807;48.258;12.690;2022-08-19T05:15:52;23.00;99.90
19342;DHT22;9807;48.258;12.690;2022-08-19T05:18:18;23.00;99.90
19342;DHT22;9807;48.258;12.690;2022-08-19T05:21:08;23.00;99.90
19342;DHT22;9807;48.258;12.690;2022-08-19T05:23:52;23.00;99.90
19342;DHT22;9807;48.258;12.690;2022-08-19T05:26:18;23.00;99.90
19342;DHT22;9807;48.258;12.690;2022-08-19T05:28:44;22.90;99.90
19342;DHT22;9807;48.258;12.690;2022-08-19T05:31:09;22.80;99.90
19342;DHT22;9807;48.258;12.690;2022-08-19T05:33:35;22.50;99.90
19342;DHT22;9807;48.258;12.690;2022-08-19T05:36:03;22.20;99.90
19342;DHT22;9807;48.258;12.690;2022-08-19T05:38:29;22.00;99.90
19342;DHT22;9807;48.258;12.690;2022-08-19T05:40:55;22.00;99.90
19342;DHT22;9807;48.258;12.690;2022-08-19T05:43:21;22.00;99.90
19342;DHT22;9807;48.258;12.690;2022-08-19T05:45:47;21.90;99.90
19342;DHT22;9807;48.258;12.690;2022-08-19T05:48:13;21.90;99.90
19342;DHT22;9807;48.258;12.690;2022-08-19T05:50:41;22.10;99.90
19342;DHT22;9807;48.258;12.690;2022-08-19T05:53:07;22.10;99.90
19342;DHT22;9807;48.258;12.690;2022-08-19T05:55:34;22.20;99.90
19342;DHT22;9807;48.258;12.690;2022-08-19T05:58:00;22.20;99.90
19342;DHT22;9807;48.258;12.690;2022-08-19T06:00:27;22.00;99.90
19342;DHT22;9807;48.258;12.690;2022-08-19T06:02:55;21.70;99.90
19342;DHT22;9807;48.258;12.690;2022-08-19T06:05:24;21.60;99.90
19342;DHT22;9807;48.258;12.690;2022-08-19T06:07:49;21.50;99.90
19342;DHT22;9807;48.258;12.690;2022-08-19T06:10:15;21.50;99.90
19342;DHT22;9807;48.258;12.690;2022-08-19T06:12:41;21.40;99.90
19342;DHT22;9807;48.258;12.690;2022-08-19T06:15:12;21.50;99.90
19342;DHT22;9807;48.258;12.690;2022-08-19T06:17:39;21.40;99.90
19342;DHT22;9807;48.258;12.690;2022-08-19T06:20:07;21.30;99.90
19342;DHT22;9807;48.258;12.690;2022-08-19T06:22:38;21.10;99.90
19342;DHT22;9807;48.258;12.690;2022-08-19T06:25:04;21.00;99.90
19342;DHT22;9807;48.258;12.690;2022-08-19T06:27:30;20.90;99.90
19342;DHT22;9807;48.258;12.690;2022-08-19T06:29:57;21.10;99.90
19342;DHT22;9807;48.258;12.690;2022-08-19T06:32:23;21.20;99.90
19342;DHT22;9807;48.258;12.690;2022-08-19T06:34:49;21.20;99.90
19342;DHT22;9807;48.258;12.690;2022-08-19T06:37:15;21.10;99.90
19342;DHT22;9807;48.258;12.690;2022-08-19T06:39:42;21.10;99.90
19342;DHT22;9807;48.258;12.690;2022-08-19T06:42:11;21.10;99.90
19342;DHT22;9807;48.258;12.690;2022-08-19T06:44:40;21.10;99.90
19342;DHT22;9807;48.258;12.690;2022-08-19T06:47:07;21.20;99.90
19342;DHT22;9807;48.258;12.690;2022-08-19T06:49:35;21.30;99.90
19342;DHT22;9807;48.258;12.690;2022-08-19T06:52:01;21.50;99.90
19342;DHT22;9807;48.258;12.690;2022-08-19T06:54:28;21.60;99.90
19342;DHT22;9807;48.258;12.690;2022-08-19T06:56:56;21.70;99.90
19342;DHT22;9807;48.258;12.690;2022-08-19T06:59:24;21.90;99.90
19342;DHT22;9807;48.258;12.690;2022-08-19T07:01:55;22.00;99.90
19342;DHT22;9807;48.258;12.690;2022-08-19T07:04:24;22.10;99.90
19342;DHT22;9807;48.258;12.690;2022-08-19T07:06:55;22.30;99.90
19342;DHT22;9807;48.258;12.690;2022-08-19T07:09:22;22.40;99.90
19342;DHT22;9807;48.258;12.690;2022-08-19T07:11:50;22.50;99.90
19342;DHT22;9807;48.258;12.690;2022-08-19T07:14:18;22.70;99.90
19342;DHT22;9807;48.258;12.690;2022-08-19T07:16:47;22.80;99.90
19342;DHT22;9807;48.258;12.690;2022-08-19T07:19:13;22.90;99.90
19342;DHT22;9807;48.258;12.690;2022-08-19T07:21:40;22.90;99.90
19342;DHT22;9807;48.258;12.690;2022-08-19T07:24:07;22.90;99.90
19342;DHT22;9807;48.258;12.690;2022-08-19T07:26:38;22.90;99.90
19342;DHT22;9807;48.258;12.690;2022-08-19T07:29:05;22.90;99.90
19342;DHT22;9807;48.258;12.690;2022-08-19T07:31:31;23.00;99.90
19342;DHT22;9807;48.258;12.690;2022-08-19T07:34:02;23.00;99.90
19342;DHT22;9807;48.258;12.690;2022-08-19T07:36:33;22.70;99.90
19342;DHT22;9807;48.258;12.690;2022-08-19T07:39:03;22.40;99.90
19342;DHT22;9807;48.258;12.690;2022-08-19T07:41:30;22.20;99.90
19342;DHT22;9807;48.258;12.690;2022-08-19T07:44:02;22.00;99.90
19342;DHT22;9807;48.258;12.690;2022-08-19T07:46:32;21.80;99.90
19342;DHT22;9807;48.258;12.690;2022-08-19T07:48:57;21.80;99.90
19342;DHT22;9807;48.258;12.690;2022-08-19T07:51:24;21.90;99.90
19342;DHT22;9807;48.258;12.690;2022-08-19T07:53:50;22.00;99.90
19342;DHT22;9807;48.258;12.690;2022-08-19T07:56:17;22.10;99.90
19342;DHT22;9807;48.258;12.690;2022-08-19T07:58:45;22.00;99.90
19342;DHT22;9807;48.258;12.690;2022-08-19T08:01:16;22.10;99.90
19342;DHT22;9807;48.258;12.690;2022-08-19T08:03:43;22.10;99.90
19342;DHT22;9807;48.258;12.690;2022-08-19T08:06:27;22.20;99.90
19342;DHT22;9807;48.258;12.690;2022-08-19T08:09:11;22.20;99.90
19342;DHT22;9807;48.258;12.690;2022-08-19T08:11:52;22.30;99.90
19342;DHT22;9807;48.258;12.690;2022-08-19T08:14:26;22.70;99.90
19342;DHT22;9807;48.258;12.690;2022-08-19T08:16:52;22.90;99.90
19342;DHT22;9807;48.258;12.690;2022-08-19T08:19:20;23.00;99.90
19342;DHT22;9807;48.258;12.690;2022-08-19T08:21:47;23.30;99.90
19342;DHT22;9807;48.258;12.690;2022-08-19T08:24:13;23.60;99.90
19342;DHT22;9807;48.258;12.690;2022-08-19T08:26:40;23.80;99.90
19342;DHT22;9807;48.258;12.690;2022-08-19T08:29:06;24.00;99.90
19342;DHT22;9807;48.258;12.690;2022-08-19T08:31:39;24.20;99.90
19342;DHT22;9807;48.258;12.690;2022-08-19T08:34:05;24.30;99.90
19342;DHT22;9807;48.258;12.690;2022-08-19T08:36:30;24.40;99.90
19342;DHT22;9807;48.258;12.690;2022-08-19T08:38:59;24.60;99.90
19342;DHT22;9807;48.258;12.690;2022-08-19T08:41:34;24.60;99.90
19342;DHT22;9807;48.258;12.690;2022-08-19T08:44:00;24.40;99.90
19342;DHT22;9807;48.258;12.690;2022-08-19T08:46:37;24.50;99.90
19342;DHT22;9807;48.258;12.690;2022-08-19T08:49:06;24.70;99.90
19342;DHT22;9807;48.258;12.690;2022-08-19T08:51:40;24.80;99.90
19342;DHT22;9807;48.258;12.690;2022-08-19T08:54:10;25.00;99.90
19342;DHT22;9807;48.258;12.690;2022-08-19T08:56:41;25.20;99.90
19342;DHT22;9807;48.258;12.690;2022-08-19T08:59:30;25.30;99.90
19342;DHT22;9807;48.258;12.690;2022-08-19T09:01:58;25.50;99.90
19342;DHT22;9807;48.258;12.690;2022-08-19T09:04:23;25.50;99.90
19342;DHT22;9807;48.258;12.690;2022-08-19T09:09:40;25.70;99.90
19342;DHT22;9807;48.258;12.690;2022-08-19T09:17:24;26.00;99.90
19342;DHT22;9807;48.258;12.690;2022-08-19T09:20:18;25.90;99.90
19342;DHT22;9807;48.258;12.690;2022-08-19T09:22:44;25.90;99.90
19342;DHT22;9807;48.258;12.690;2022-08-19T09:25:12;25.80;99.90
19342;DHT22;9807;48.258;12.690;2022-08-19T09:27:40;25.90;99.90
19342;DHT22;9807;48.258;12.690;2022-08-19T09:30:08;26.10;99.90
19342;DHT22;9807;48.258;12.690;2022-08-19T09:32:34;26.40;99.90
19342;DHT22;9807;48.258;12.690;2022-08-19T09:35:00;26.50;99.90
19342;DHT22;9807;48.258;12.690;2022-08-19T09:37:27;26.50;99.90
19342;DHT22;9807;48.258;12.690;2022-08-19T09:39:53;26.60;99.90
19342;DHT22;9807;48.258;12.690;2022-08-19T09:42:19;26.70;99.90
19342;DHT22;9807;48.258;12.690;2022-08-19T09:44:46;26.90;99.90
19342;DHT22;9807;48.258;12.690;2022-08-19T09:47:13;27.00;99.90
19342;DHT22;9807;48.258;12.690;2022-08-19T09:49:39;27.00;99.90
19342;DHT22;9807;48.258;12.690;2022-08-19T09:52:06;27.00;99.90
19342;DHT22;9807;48.258;12.690;2022-08-19T09:54:33;27.00;99.90
19342;DHT22;9807;48.258;12.690;2022-08-19T09:57:00;26.80;99.90
19342;DHT22;9807;48.258;12.690;2022-08-19T09:59:26;26.70;99.90
19342;DHT22;9807;48.258;12.690;2022-08-19T10:01:52;26.40;99.90
19342;DHT22;9807;48.258;12.690;2022-08-19T10:04:18;26.10;99.90
19342;DHT22;9807;48.258;12.690;2022-08-19T10:06:47;25.90;99.90
19342;DHT22;9807;48.258;12.690;2022-08-19T10:09:14;25.60;99.90
19342;DHT22;9807;48.258;12.690;2022-08-19T10:11:42;25.10;99.90
19342;DHT22;9807;48.258;12.690;2022-08-19T10:14:13;24.70;99.90
19342;DHT22;9807;48.258;12.690;2022-08-19T10:16:40;24.30;99.90
19342;DHT22;9807;48.258;12.690;2022-08-19T10:19:07;24.00;99.90
19342;DHT22;9807;48.258;12.690;2022-08-19T10:21:34;23.70;99.90
19342;DHT22;9807;48.258;12.690;2022-08-19T10:24:03;23.70;99.90
19342;DHT22;9807;48.258;12.690;2022-08-19T10:26:33;23.80;99.90
19342;DHT22;9807;48.258;12.690;2022-08-19T10:29:00;23.90;99.90
19342;DHT22;9807;48.258;12.690;2022-08-19T10:31:31;24.10;99.90
19342;DHT22;9807;48.258;12.690;2022-08-19T10:33:57;24.20;99.90
19342;DHT22;9807;48.258;12.690;2022-08-19T10:36:30;24.50;99.90
19342;DHT22;9807;48.258;12.690;2022-08-19T10:38:59;24.80;99.90
19342;DHT22;9807;48.258;12.690;2022-08-19T10:41:28;25.10;99.90
19342;DHT22;9807;48.258;12.690;2022-08-19T10:43:57;25.40;99.90
19342;DHT22;9807;48.258;12.690;2022-08-19T10:46:24;25.30;99.90
19342;DHT22;9807;48.258;12.690;2022-08-19T10:48:51;25.10;99.90
19342;DHT22;9807;48.258;12.690;2022-08-19T10:51:18;24.90;99.90
19342;DHT22;9807;48.258;12.690;2022-08-19T10:54:03;24.80;99.90
19342;DHT22;9807;48.258;12.690;2022-08-19T10:56:30;24.80;99.90
19342;DHT22;9807;48.258;12.690;2022-08-19T10:59:17;24.50;99.90
19342;DHT22;9807;48.258;12.690;2022-08-19T11:01:46;24.20;99.90
19342;DHT22;9807;48.258;12.690;2022-08-19T11:04:12;24.20;99.90
19342;DHT22;9807;48.258;12.690;2022-08-19T11:06:39;24.30;99.90
19342;DHT22;9807;48.258;12.690;2022-08-19T11:09:07;24.60;99.90
19342;DHT22;9807;48.258;12.690;2022-08-19T11:11:33;24.70;99.90
19342;DHT22;9807;48.258;12.690;2022-08-19T11:14:11;24.80;99.90
19342;DHT22;9807;48.258;12.690;2022-08-19T11:16:37;24.80;99.90
19342;DHT22;9807;48.258;12.690;2022-08-19T11:19:05;24.90;99.90
19342;DHT22;9807;48.258;12.690;2022-08-19T11:21:36;25.00;99.90
19342;DHT22;9807;48.258;12.690;2022-08-19T11:24:05;25.10;99.90
19342;DHT22;9807;48.258;12.690;2022-08-19T11:26:32;25.30;99.90
19342;DHT22;9807;48.258;12.690;2022-08-19T11:28:59;25.50;99.90
19342;DHT22;9807;48.258;12.690;2022-08-19T11:31:28;25.20;99.90
19342;DHT22;9807;48.258;12.690;2022-08-19T11:33:56;25.30;99.90
19342;DHT22;9807;48.258;12.690;2022-08-19T11:36:22;25.30;99.90
19342;DHT22;9807;48.258;12.690;2022-08-19T11:38:49;25.40;99.90
19342;DHT22;9807;48.258;12.690;2022-08-19T11:41:17;25.40;99.90
19342;DHT22;9807;48.258;12.690;2022-08-19T11:43:44;25.40;99.90
19342;DHT22;9807;48.258;12.690;2022-08-19T11:46:12;25.40;99.90
19342;DHT22;9807;48.258;12.690;2022-08-19T11:48:39;25.50;99.90
19342;DHT22;9807;48.258;12.690;2022-08-19T11:51:09;25.70;99.90
19342;DHT22;9807;48.258;12.690;2022-08-19T11:53:36;25.80;99.90
19342;DHT22;9807;48.258;12.690;2022-08-19T11:56:06;26.00;99.90
19342;DHT22;9807;48.258;12.690;2022-08-19T11:58:32;25.60;99.90
19342;DHT22;9807;48.258;12.690;2022-08-19T12:00:58;25.80;99.90
19342;DHT22;9807;48.258;12.690;2022-08-19T12:03:27;26.10;99.90
19342;DHT22;9807;48.258;12.690;2022-08-19T12:05:53;26.20;99.90
19342;DHT22;9807;48.258;12.690;2022-08-19T12:08:20;26.40;99.90
19342;DHT22;9807;48.258;12.690;2022-08-19T12:10:45;26.60;99.90
19342;DHT22;9807;48.258;12.690;2022-08-19T12:13:12;26.70;99.90
19342;DHT22;9807;48.258;12.690;2022-08-19T12:15:44;26.80;99.90
19342;DHT22;9807;48.258;12.690;2022-08-19T12:18:11;27.00;99.90
19342;DHT22;9807;48.258;12.690;2022-08-19T12:20:43;26.70;99.90
19342;DHT22;9807;48.258;12.690;2022-08-19T12:23:12;26.60;99.90
19342;DHT22;9807;48.258;12.690;2022-08-19T12:25:44;26.60;99.90
19342;DHT22;9807;48.258;12.690;2022-08-19T12:28:20;26.80;99.90
19342;DHT22;9807;48.258;12.690;2022-08-19T12:30:48;27.10;99.90
19342;DHT22;9807;48.258;12.690;2022-08-19T12:33:14;27.20;99.90
19342;DHT22;9807;48.258;12.690;2022-08-19T12:35:41;27.40;99.90
19342;DHT22;9807;48.258;12.690;2022-08-19T12:38:11;27.50;99.90
19342;DHT22;9807;48.258;12.690;2022-08-19T12:40:37;27.50;99.90
19342;DHT22;9807;48.258;12.690;2022-08-19T12:43:03;27.20;99.90
19342;DHT22;9807;48.258;12.690;2022-08-19T12:45:29;27.20;99.90
19342;DHT22;9807;48.258;12.690;2022-08-19T12:47:55;27.10;99.90
19342;DHT22;9807;48.258;12.690;2022-08-19T12:50:21;27.00;99.90
19342;DHT22;9807;48.258;12.690;2022-08-19T12:52:47;27.00;99.90
19342;DHT22;9807;48.258;12.690;2022-08-19T12:55:13;26.90;99.90
19342;DHT22;9807;48.258;12.690;2022-08-19T12:57:39;26.80;99.90
19342;DHT22;9807;48.258;12.690;2022-08-19T13:00:08;26.70;99.90
19342;DHT22;9807;48.258;12.690;2022-08-19T13:02:38;26.50;99.90
19342;DHT22;9807;48.258;12.690;2022-08-19T13:05:05;26.30;99.90
19342;DHT22;9807;48.258;12.690;2022-08-19T13:07:32;26.30;99.90
19342;DHT22;9807;48.258;12.690;2022-08-19T13:09:58;26.20;99.90
19342;DHT22;9807;48.258;12.690;2022-08-19T13:12:24;26.20;99.90
19342;DHT22;9807;48.258;12.690;2022-08-19T13:14:52;26.30;99.90
19342;DHT22;9807;48.258;12.690;2022-08-19T13:17:19;26.40;99.90
19342;DHT22;9807;48.258;12.690;2022-08-19T13:19:45;26.50;99.90
19342;DHT22;9807;48.258;12.690;2022-08-19T13:22:11;26.60;99.90
19342;DHT22;9807;48.258;12.690;2022-08-19T13:24:37;26.40;99.90
19342;DHT22;9807;48.258;12.690;2022-08-19T13:27:03;26.50;99.90
19342;DHT22;9807;48.258;12.690;2022-08-19T13:29:29;26.70;99.90
19342;DHT22;9807;48.258;12.690;2022-08-19T13:32:13;26.80;99.90
19342;DHT22;9807;48.258;12.690;2022-08-19T13:34:57;26.80;99.90
19342;DHT22;9807;48.258;12.690;2022-08-19T13:37:23;26.70;99.90
19342;DHT22;9807;48.258;12.690;2022-08-19T13:40:15;26.90;99.90
19342;DHT22;9807;48.258;12.690;2022-08-19T13:42:45;26.80;99.90
19342;DHT22;9807;48.258;12.690;2022-08-19T13:45:16;26.70;99.90
19342;DHT22;9807;48.258;12.690;2022-08-19T13:47:46;26.70;99.90
19342;DHT22;9807;48.258;12.690;2022-08-19T13:50:15;26.80;99.90
19342;DHT22;9807;48.258;12.690;2022-08-19T13:52:41;26.90;99.90
19342;DHT22;9807;48.258;12.690;2022-08-19T13:55:08;27.00;99.90
19342;DHT22;9807;48.258;12.690;2022-08-19T13:57:34;27.00;99.90
19342;DHT22;9807;48.258;12.690;2022-08-19T14:00:01;27.20;99.90
19342;DHT22;9807;48.258;12.690;2022-08-19T14:02:28;27.30;99.90
19342;DHT22;9807;48.258;12.690;2022-08-19T14:04:54;27.50;99.90
19342;DHT22;9807;48.258;12.690;2022-08-19T14:07:20;27.60;99.90
19342;DHT22;9807;48.258;12.690;2022-08-19T14:09:49;27.50;99.90
19342;DHT22;9807;48.258;12.690;2022-08-19T14:12:19;27.50;99.90
19342;DHT22;9807;48.258;12.690;2022-08-19T14:14:46;27.60;99.90
19342;DHT22;9807;48.258;12.690;2022-08-19T14:17:12;27.60;99.90
19342;DHT22;9807;48.258;12.690;2022-08-19T14:19:38;27.60;99.90
19342;DHT22;9807;48.258;12.690;2022-08-19T14:22:03;27.40;99.90
19342;DHT22;9807;48.258;12.690;2022-08-19T14:24:31;27.40;99.90
19342;DHT22;9807;48.258;12.690;2022-08-19T14:26:58;27.30;99.90
19342;DHT22;9807;48.258;12.690;2022-08-19T14:29:25;27.50;99.90
19342;DHT22;9807;48.258;12.690;2022-08-19T14:31:52;27.40;99.90
19342;DHT22;9807;48.258;12.690;2022-08-19T14:34:17;27.10;99.90
19342;DHT22;9807;48.258;12.690;2022-08-19T14:36:45;27.00;99.90
19342;DHT22;9807;48.258;12.690;2022-08-19T14:39:11;26.90;99.90
19342;DHT22;9807;48.258;12.690;2022-08-19T14:41:40;26.70;99.90
19342;DHT22;9807;48.258;12.690;2022-08-19T14:44:07;26.60;99.90
19342;DHT22;9807;48.258;12.690;2022-08-19T14:46:35;26.40;99.90
19342;DHT22;9807;48.258;12.690;2022-08-19T14:49:01;26.30;99.90
19342;DHT22;9807;48.258;12.690;2022-08-19T14:51:27;26.20;99.90
19342;DHT22;9807;48.258;12.690;2022-08-19T14:53:53;26.00;99.90
19342;DHT22;9807;48.258;12.690;2022-08-19T14:56:22;25.80;99.90
19342;DHT22;9807;48.258;12.690;2022-08-19T14:58:48;25.60;99.90
19342;DHT22;9807;48.258;12.690;2022-08-19T15:01:17;25.30;99.90
19342;DHT22;9807;48.258;12.690;2022-08-19T15:03:44;25.10;99.90
19342;DHT22;9807;48.258;12.690;2022-08-19T15:06:09;25.00;99.90
19342;DHT22;9807;48.258;12.690;2022-08-19T15:08:37;24.90;99.90
19342;DHT22;9807;48.258;12.690;2022-08-19T15:11:08;24.70;99.90
19342;DHT22;9807;48.258;12.690;2022-08-19T15:13:34;24.70;99.90
19342;DHT22;9807;48.258;12.690;2022-08-19T15:16:03;24.60;99.90
19342;DHT22;9807;48.258;12.690;2022-08-19T15:18:29;24.40;99.90
19342;DHT22;9807;48.258;12.690;2022-08-19T15:20:55;24.40;99.90
19342;DHT22;9807;48.258;12.690;2022-08-19T15:23:22;24.40;99.90
19342;DHT22;9807;48.258;12.690;2022-08-19T15:25:48;24.40;99.90
19342;DHT22;9807;48.258;12.690;2022-08-19T15:28:18;24.40;99.90
19342;DHT22;9807;48.258;12.690;2022-08-19T15:30:44;24.40;99.90
19342;DHT22;9807;48.258;12.690;2022-08-19T15:33:13;24.40;99.90
19342;DHT22;9807;48.258;12.690;2022-08-19T15:35:47;24.20;99.90
19342;DHT22;9807;48.258;12.690;2022-08-19T15:38:14;24.10;99.90
19342;DHT22;9807;48.258;12.690;2022-08-19T15:40:41;24.10;99.90
19342;DHT22;9807;48.258;12.690;2022-08-19T15:43:13;24.10;99.90
19342;DHT22;9807;48.258;12.690;2022-08-19T15:45:40;24.00;99.90